createdAt,value
2016-12-27T00:00:39.503Z,970.91
2016-12-27T00:01:32.297Z,970.89
2016-12-27T00:02:39.543Z,970.82
2016-12-27T00:03:39.084Z,970.88
2016-12-27T00:04:44.488Z,970.95
2016-12-27T00:05:40.229Z,970.99
2016-12-27T00:06:38.477Z,970.96
2016-12-27T00:07:49.851Z,970.96
2016-12-27T00:08:34.219Z,970.92
2016-12-27T00:09:44.613Z,970.91
2016-12-27T00:10:34.848Z,970.89
2016-12-27T00:11:39.848Z,970.89
2016-12-27T00:12:43.606Z,970.86
2016-12-27T00:13:48.461Z,970.87
2016-12-27T00:14:37.342Z,970.89
2016-12-27T00:15:32.630Z,970.86
2016-12-27T00:16:47.769Z,970.86
2016-12-27T00:17:53.607Z,970.82
2016-12-27T00:18:39.776Z,970.81
2016-12-27T00:19:39.825Z,970.84
2016-12-27T00:20:38.196Z,970.84
2016-12-27T00:21:40.236Z,970.85
2016-12-27T00:22:39.732Z,970.85
2016-12-27T00:23:40.017Z,970.84
2016-12-27T00:24:45.350Z,970.89
2016-12-27T00:25:42.972Z,970.90
2016-12-27T00:26:43.041Z,970.90
2016-12-27T00:27:38.661Z,970.91
2016-12-27T00:28:42.360Z,970.90
2016-12-27T00:29:39.629Z,970.89
2016-12-27T00:30:32.971Z,970.89
2016-12-27T00:31:46.666Z,970.89
2016-12-27T00:32:40.114Z,970.89
2016-12-27T00:33:40.179Z,970.90
2016-12-27T00:34:38.618Z,970.92
2016-12-27T00:35:44.598Z,970.94
2016-12-27T00:36:34.538Z,970.92
2016-12-27T00:37:39.856Z,970.92
2016-12-27T00:38:39.528Z,970.97
2016-12-27T00:39:48.472Z,970.96
2016-12-27T00:40:43.094Z,970.98
2016-12-27T00:41:33.727Z,970.96
2016-12-27T00:42:40.092Z,970.95
2016-12-27T00:43:39.625Z,970.93
2016-12-27T00:44:38.714Z,970.96
2016-12-27T00:45:49.164Z,970.91
2016-12-27T00:46:47.019Z,970.93
2016-12-27T00:47:56.053Z,970.93
2016-12-27T00:48:40.433Z,970.89
2016-12-27T00:49:40.890Z,970.92
2016-12-27T00:50:38.530Z,971.02
2016-12-27T00:51:47.035Z,970.93
2016-12-27T00:52:42.386Z,970.99
2016-12-27T00:53:39.246Z,971.02
2016-12-27T00:54:38.764Z,971.03
2016-12-27T00:55:45.655Z,971.05
2016-12-27T00:56:40.429Z,971.10
2016-12-27T00:57:44.035Z,971.06
2016-12-27T00:58:39.963Z,971.10
2016-12-27T00:59:49.656Z,971.09
2016-12-27T01:00:39.285Z,971.07
2016-12-27T01:01:52.375Z,971.09
2016-12-27T01:02:36.824Z,971.11
2016-12-27T01:03:38.901Z,971.14
2016-12-27T01:04:43.811Z,971.16
2016-12-27T01:05:44.275Z,971.19
2016-12-27T01:06:41.715Z,971.19
2016-12-27T01:07:39.947Z,971.28
2016-12-27T01:08:41.452Z,971.30
2016-12-27T01:09:38.244Z,971.34
2016-12-27T01:10:34.507Z,971.32
2016-12-27T01:11:41.415Z,971.29
2016-12-27T01:12:44.253Z,971.34
2016-12-27T01:13:44.900Z,971.42
2016-12-27T01:14:43.872Z,971.42
2016-12-27T01:15:41.759Z,971.46
2016-12-27T01:16:39.519Z,971.45
2016-12-27T01:17:40.745Z,971.43
2016-12-27T01:18:40.798Z,971.46
2016-12-27T01:19:40.424Z,971.42
2016-12-27T01:20:49.105Z,971.50
2016-12-27T01:21:39.067Z,971.48
2016-12-27T01:22:47.677Z,971.47
2016-12-27T01:23:43.686Z,971.52
2016-12-27T01:24:32.417Z,971.42
2016-12-27T01:26:33.042Z,971.48
2016-12-27T01:26:48.688Z,971.55
2016-12-27T01:28:00.714Z,971.54
2016-12-27T01:28:42.105Z,971.56
2016-12-27T01:29:45.465Z,971.57
2016-12-27T01:30:39.069Z,971.62
2016-12-27T01:31:35.617Z,971.63
2016-12-27T01:32:38.343Z,971.68
2016-12-27T01:33:38.807Z,971.65
2016-12-27T01:34:44.155Z,971.70
2016-12-27T01:35:39.528Z,971.70
2016-12-27T01:36:40.054Z,971.72
2016-12-27T01:37:40.217Z,971.72
2016-12-27T01:38:39.808Z,971.67
2016-12-27T01:39:34.409Z,971.68
2016-12-27T01:40:39.091Z,971.71
2016-12-27T01:41:43.419Z,971.71
2016-12-27T01:42:37.848Z,971.73
2016-12-27T01:43:42.978Z,971.71
2016-12-27T01:44:44.791Z,971.70
2016-12-27T01:45:38.253Z,971.68
2016-12-27T01:46:34.531Z,971.70
2016-12-27T01:47:38.533Z,971.66
2016-12-27T01:48:34.099Z,971.65
2016-12-27T01:49:44.939Z,971.65
2016-12-27T01:50:41.152Z,971.68
2016-12-27T01:51:39.532Z,971.70
2016-12-27T01:52:39.550Z,971.71
2016-12-27T01:53:45.368Z,971.75
2016-12-27T01:54:41.779Z,971.80
2016-12-27T01:55:34.079Z,971.79
2016-12-27T01:56:48.868Z,971.81
2016-12-27T01:57:39.874Z,971.80
2016-12-27T01:58:38.481Z,971.80
2016-12-27T01:59:33.775Z,971.76
2016-12-27T02:00:41.232Z,971.79
2016-12-27T02:01:39.664Z,971.75
2016-12-27T02:02:49.827Z,971.75
2016-12-27T02:03:40.567Z,971.73
2016-12-27T02:04:47.337Z,971.76
2016-12-27T02:05:43.677Z,971.76
2016-12-27T02:06:39.855Z,971.76
2016-12-27T02:07:48.855Z,971.79
2016-12-27T02:08:34.154Z,971.79
2016-12-27T02:09:41.852Z,971.79
2016-12-27T02:10:38.585Z,971.81
2016-12-27T02:11:33.380Z,971.80
2016-12-27T02:12:40.990Z,971.83
2016-12-27T02:13:53.214Z,971.86
2016-12-27T02:14:34.100Z,971.89
2016-12-27T02:15:49.878Z,971.88
2016-12-27T02:16:37.881Z,971.87
2016-12-27T02:17:37.887Z,971.85
2016-12-27T02:18:47.886Z,971.84
2016-12-27T02:19:38.306Z,971.82
2016-12-27T02:20:44.723Z,971.83
2016-12-27T02:21:39.873Z,971.83
2016-12-27T02:22:34.719Z,971.85
2016-12-27T02:23:53.575Z,971.88
2016-12-27T02:24:47.101Z,971.85
2016-12-27T02:25:37.908Z,971.92
2016-12-27T02:26:39.718Z,971.92
2016-12-27T02:27:37.889Z,971.87
2016-12-27T02:28:36.991Z,971.94
2016-12-27T02:29:39.660Z,971.90
2016-12-27T02:30:38.621Z,971.90
2016-12-27T02:31:39.397Z,971.95
2016-12-27T02:32:40.408Z,971.90
2016-12-27T02:33:38.668Z,971.88
2016-12-27T02:34:42.639Z,971.90
2016-12-27T02:35:39.561Z,971.88
2016-12-27T02:36:45.791Z,971.87
2016-12-27T02:37:36.703Z,971.92
2016-12-27T02:38:53.157Z,971.91
2016-12-27T02:39:41.971Z,971.93
2016-12-27T02:40:38.965Z,971.95
2016-12-27T02:41:38.972Z,971.96
2016-12-27T02:42:45.474Z,971.98
2016-12-27T02:43:32.700Z,972.00
2016-12-27T02:44:39.812Z,972.03
2016-12-27T02:45:41.578Z,972.03
2016-12-27T02:46:39.310Z,971.98
2016-12-27T02:47:45.013Z,972.02
2016-12-27T02:48:45.537Z,971.99
2016-12-27T02:49:41.819Z,972.03
2016-12-27T02:50:38.490Z,971.97
2016-12-27T02:51:40.081Z,972.00
2016-12-27T02:52:39.717Z,971.95
2016-12-27T02:53:39.327Z,971.97
2016-12-27T02:54:41.014Z,971.94
2016-12-27T02:55:39.395Z,971.96
2016-12-27T02:56:43.726Z,971.94
2016-12-27T02:57:51.075Z,971.94
2016-12-27T02:58:38.074Z,971.98
2016-12-27T02:59:47.978Z,971.97
2016-12-27T03:00:41.929Z,972.02
2016-12-27T03:01:34.551Z,972.07
2016-12-27T03:02:45.008Z,972.07
2016-12-27T03:03:34.730Z,972.10
2016-12-27T03:04:38.753Z,972.11
2016-12-27T03:05:56.657Z,972.07
2016-12-27T03:06:38.867Z,972.10
2016-12-27T03:07:45.642Z,972.06
2016-12-27T03:08:42.631Z,972.04
2016-12-27T03:09:37.628Z,972.05
2016-12-27T03:10:44.691Z,972.06
2016-12-27T03:11:39.527Z,972.12
2016-12-27T03:12:39.842Z,972.16
2016-12-27T03:13:39.212Z,972.15
2016-12-27T03:14:41.525Z,972.13
2016-12-27T03:15:49.851Z,972.17
2016-12-27T03:16:40.728Z,972.23
2016-12-27T03:17:40.132Z,972.21
2016-12-27T03:18:29.077Z,972.23
2016-12-27T03:19:53.324Z,972.23
2016-12-27T03:20:39.435Z,972.22
2016-12-27T03:21:42.644Z,972.22
2016-12-27T03:22:32.784Z,972.18
2016-12-27T03:23:45.542Z,972.11
2016-12-27T03:24:50.118Z,972.06
2016-12-27T03:25:40.116Z,972.11
2016-12-27T03:26:45.762Z,972.09
2016-12-27T03:27:35.864Z,972.18
2016-12-27T03:28:39.371Z,972.18
2016-12-27T03:29:39.832Z,972.18
2016-12-27T03:30:37.177Z,972.22
2016-12-27T03:31:50.542Z,972.18
2016-12-27T03:32:48.167Z,972.22
2016-12-27T03:33:38.459Z,972.22
2016-12-27T03:34:39.127Z,972.29
2016-12-27T03:35:44.193Z,972.27
2016-12-27T03:36:40.224Z,972.33
2016-12-27T03:37:45.478Z,972.35
2016-12-27T03:38:41.801Z,972.32
2016-12-27T03:39:39.084Z,972.41
2016-12-27T03:40:34.598Z,972.40
2016-12-27T03:41:28.414Z,972.48
2016-12-27T03:42:44.542Z,972.46
2016-12-27T03:43:39.606Z,972.51
2016-12-27T03:44:47.151Z,972.57
2016-12-27T03:45:48.884Z,972.58
2016-12-27T03:46:39.707Z,972.60
2016-12-27T03:47:43.533Z,972.57
2016-12-27T03:48:41.098Z,972.57
2016-12-27T03:49:29.760Z,972.55
2016-12-27T03:50:39.938Z,972.59
2016-12-27T03:51:39.686Z,972.59
2016-12-27T03:52:45.030Z,972.61
2016-12-27T03:53:42.170Z,972.51
2016-12-27T03:54:42.189Z,972.61
2016-12-27T03:55:41.190Z,972.60
2016-12-27T03:56:40.000Z,972.63
2016-12-27T03:57:49.525Z,972.59
2016-12-27T03:58:38.983Z,972.63
2016-12-27T03:59:32.581Z,972.69
2016-12-27T04:00:28.385Z,972.75
2016-12-27T04:01:39.581Z,972.74
2016-12-27T04:02:33.520Z,972.77
2016-12-27T04:03:43.529Z,972.79
2016-12-27T04:04:34.578Z,972.86
2016-12-27T04:05:44.197Z,972.88
2016-12-27T04:06:43.077Z,972.81
2016-12-27T04:07:40.252Z,972.89
2016-12-27T04:08:49.988Z,972.88
2016-12-27T04:09:43.689Z,972.84
2016-12-27T04:10:38.562Z,972.81
2016-12-27T04:11:45.196Z,972.80
2016-12-27T04:12:40.480Z,972.79
2016-12-27T04:13:40.078Z,972.85
2016-12-27T04:14:37.857Z,972.80
2016-12-27T04:15:46.559Z,972.78
2016-12-27T04:16:38.850Z,972.78
2016-12-27T04:17:42.250Z,972.77
2016-12-27T04:18:40.189Z,972.73
2016-12-27T04:19:48.117Z,972.79
2016-12-27T04:20:48.407Z,972.75
2016-12-27T04:21:40.461Z,972.75
2016-12-27T04:22:39.719Z,972.78
2016-12-27T04:23:39.459Z,972.78
2016-12-27T04:24:28.809Z,972.77
2016-12-27T04:25:45.247Z,972.77
2016-12-27T04:26:39.357Z,972.79
2016-12-27T04:27:40.408Z,972.81
2016-12-27T04:28:29.837Z,972.78
2016-12-27T04:29:40.522Z,972.85
2016-12-27T04:30:38.691Z,972.85
2016-12-27T04:31:38.436Z,972.93
2016-12-27T04:32:39.519Z,972.85
2016-12-27T04:33:46.019Z,972.92
2016-12-27T04:34:34.516Z,972.87
2016-12-27T04:35:40.306Z,972.90
2016-12-27T04:36:43.703Z,972.87
2016-12-27T04:37:37.673Z,972.85
2016-12-27T04:38:47.764Z,972.91
2016-12-27T04:39:51.279Z,972.88
2016-12-27T04:40:39.310Z,972.93
2016-12-27T04:41:39.771Z,972.94
2016-12-27T04:42:41.310Z,972.90
2016-12-27T04:43:39.740Z,972.82
2016-12-27T04:44:40.490Z,972.82
2016-12-27T04:45:33.593Z,972.80
2016-12-27T04:46:32.910Z,972.81
2016-12-27T04:47:44.309Z,972.89
2016-12-27T04:48:41.824Z,972.90
2016-12-27T04:49:46.042Z,972.95
2016-12-27T04:50:40.733Z,972.94
2016-12-27T04:51:40.426Z,972.97
2016-12-27T04:52:42.212Z,973.01
2016-12-27T04:53:40.128Z,973.00
2016-12-27T04:54:39.749Z,973.01
2016-12-27T04:55:34.216Z,973.02
2016-12-27T04:56:38.801Z,973.05
2016-12-27T04:57:44.416Z,972.99
2016-12-27T04:58:49.795Z,973.04
2016-12-27T04:59:36.039Z,973.02
2016-12-27T05:00:41.923Z,973.06
2016-12-27T05:01:47.215Z,973.08
2016-12-27T05:02:54.481Z,973.18
2016-12-27T05:03:40.953Z,973.19
2016-12-27T05:04:52.266Z,973.27
2016-12-27T05:05:49.200Z,973.25
2016-12-27T05:06:45.233Z,973.22
2016-12-27T05:07:46.778Z,973.27
2016-12-27T05:08:37.480Z,973.22
2016-12-27T05:09:52.125Z,973.22
2016-12-27T05:10:36.828Z,973.18
2016-12-27T05:11:41.630Z,973.28
2016-12-27T05:12:45.707Z,973.28
2016-12-27T05:13:41.273Z,973.29
2016-12-27T05:14:41.257Z,973.29
2016-12-27T05:16:00.235Z,973.28
2016-12-27T05:16:40.274Z,973.28
2016-12-27T05:17:28.164Z,973.30
2016-12-27T05:18:40.922Z,973.29
2016-12-27T05:19:50.207Z,973.25
2016-12-27T05:20:39.765Z,973.24
2016-12-27T05:21:37.613Z,973.22
2016-12-27T05:22:46.259Z,973.19
2016-12-27T05:23:44.658Z,973.15
2016-12-27T05:24:44.026Z,973.12
2016-12-27T05:25:51.092Z,973.15
2016-12-27T05:26:44.516Z,973.14
2016-12-27T05:27:41.769Z,973.14
2016-12-27T05:28:49.569Z,973.16
2016-12-27T05:29:40.069Z,973.13
2016-12-27T05:30:38.779Z,973.15
2016-12-27T05:31:47.330Z,973.15
2016-12-27T05:32:36.988Z,973.17
2016-12-27T05:33:46.438Z,973.16
2016-12-27T05:34:38.323Z,973.22
2016-12-27T05:35:47.650Z,973.23
2016-12-27T05:36:40.060Z,973.19
2016-12-27T05:37:38.920Z,973.18
2016-12-27T05:38:45.688Z,973.17
2016-12-27T05:39:39.622Z,973.15
2016-12-27T05:40:43.585Z,973.09
2016-12-27T05:41:50.165Z,973.09
2016-12-27T05:42:43.270Z,973.10
2016-12-27T05:43:45.612Z,973.23
2016-12-27T05:44:45.036Z,973.22
2016-12-27T05:45:38.131Z,973.18
2016-12-27T05:46:58.214Z,973.20
2016-12-27T05:47:47.451Z,973.22
2016-12-27T05:48:41.639Z,973.27
2016-12-27T05:49:39.649Z,973.26
2016-12-27T05:50:39.171Z,973.21
2016-12-27T05:51:43.450Z,973.14
2016-12-27T05:52:39.123Z,973.12
2016-12-27T05:53:45.513Z,973.14
2016-12-27T05:54:52.190Z,973.11
2016-12-27T05:55:20.704Z,973.19
2016-12-27T05:56:46.438Z,973.13
2016-12-27T05:57:46.165Z,973.11
2016-12-27T05:58:40.273Z,973.12
2016-12-27T05:59:41.958Z,973.10
2016-12-27T06:00:46.248Z,973.12
2016-12-27T06:01:40.465Z,973.14
2016-12-27T06:02:43.682Z,973.12
2016-12-27T06:04:47.096Z,973.14
2016-12-27T06:04:52.375Z,973.14
2016-12-27T06:05:45.515Z,973.18
2016-12-27T06:06:40.429Z,973.20
2016-12-27T06:07:40.427Z,973.21
2016-12-27T06:08:56.402Z,973.24
2016-12-27T06:09:43.456Z,973.31
2016-12-27T06:10:40.007Z,973.40
2016-12-27T06:11:38.869Z,973.42
2016-12-27T06:12:39.554Z,973.50
2016-12-27T06:13:34.216Z,973.54
2016-12-27T06:14:50.507Z,973.57
2016-12-27T06:15:49.889Z,973.59
2016-12-27T06:16:50.990Z,973.61
2016-12-27T06:17:34.036Z,973.60
2016-12-27T06:18:39.590Z,973.67
2016-12-27T06:19:39.639Z,973.75
2016-12-27T06:20:37.237Z,973.78
2016-12-27T06:21:39.864Z,973.80
2016-12-27T06:22:38.276Z,973.89
2016-12-27T06:23:33.580Z,973.89
2016-12-27T06:24:38.371Z,973.96
2016-12-27T06:25:40.019Z,973.99
2016-12-27T06:26:45.080Z,974.02
2016-12-27T06:27:48.305Z,974.06
2016-12-27T06:28:43.212Z,974.05
2016-12-27T06:29:44.839Z,974.09
2016-12-27T06:30:40.294Z,974.10
2016-12-27T06:31:47.264Z,974.13
2016-12-27T06:32:39.946Z,974.11
2016-12-27T06:33:39.677Z,974.15
2016-12-27T06:34:40.242Z,974.13
2016-12-27T06:35:53.105Z,974.16
2016-12-27T06:36:35.678Z,974.20
2016-12-27T06:37:57.017Z,974.15
2016-12-27T06:38:53.545Z,974.18
2016-12-27T06:39:42.638Z,974.17
2016-12-27T06:40:44.118Z,974.20
2016-12-27T06:41:35.851Z,974.12
2016-12-27T06:42:39.405Z,974.13
2016-12-27T06:43:39.764Z,974.13
2016-12-27T06:44:39.982Z,974.13
2016-12-27T06:45:40.724Z,974.11
2016-12-27T06:46:39.502Z,974.13
2016-12-27T06:47:42.565Z,974.20
2016-12-27T06:48:53.271Z,974.29
2016-12-27T06:49:38.804Z,974.22
2016-12-27T06:50:34.342Z,974.27
2016-12-27T06:51:39.160Z,974.27
2016-12-27T06:52:38.360Z,974.34
2016-12-27T06:53:41.240Z,974.36
2016-12-27T06:54:51.507Z,974.34
2016-12-27T06:55:39.593Z,974.35
2016-12-27T06:56:45.449Z,974.36
2016-12-27T06:57:40.550Z,974.44
2016-12-27T06:58:39.100Z,974.46
2016-12-27T06:59:46.653Z,974.49
2016-12-27T07:00:44.250Z,974.50
2016-12-27T07:01:40.191Z,974.48
2016-12-27T07:02:35.760Z,974.44
2016-12-27T07:03:42.337Z,974.44
2016-12-27T07:04:42.771Z,974.45
2016-12-27T07:05:46.522Z,974.43
2016-12-27T07:06:41.539Z,974.42
2016-12-27T07:07:39.122Z,974.43
2016-12-27T07:08:41.044Z,974.43
2016-12-27T07:09:39.289Z,974.48
2016-12-27T07:10:36.845Z,974.54
2016-12-27T07:11:35.861Z,974.50
2016-12-27T07:12:33.037Z,974.44
2016-12-27T07:13:39.090Z,974.45
2016-12-27T07:14:41.475Z,974.38
2016-12-27T07:15:49.703Z,974.39
2016-12-27T07:16:40.539Z,974.39
2016-12-27T07:17:39.956Z,974.42
2016-12-27T07:18:39.961Z,974.45
2016-12-27T07:19:40.439Z,974.44
2016-12-27T07:20:40.734Z,974.44
2016-12-27T07:21:45.361Z,974.45
2016-12-27T07:22:51.891Z,974.50
2016-12-27T07:23:35.508Z,974.53
2016-12-27T07:24:47.763Z,974.55
2016-12-27T07:25:48.115Z,974.54
2016-12-27T07:26:43.076Z,974.50
2016-12-27T07:27:39.881Z,974.54
2016-12-27T07:28:44.761Z,974.53
2016-12-27T07:29:39.922Z,974.60
2016-12-27T07:30:44.305Z,974.58
2016-12-27T07:31:26.085Z,974.55
2016-12-27T07:32:40.704Z,974.50
2016-12-27T07:33:49.826Z,974.44
2016-12-27T07:34:39.813Z,974.39
2016-12-27T07:35:45.391Z,974.43
2016-12-27T07:36:39.063Z,974.38
2016-12-27T07:37:39.927Z,974.33
2016-12-27T07:38:44.715Z,974.34
2016-12-27T07:39:39.776Z,974.38
2016-12-27T07:40:39.741Z,974.36
2016-12-27T07:41:41.544Z,974.42
2016-12-27T07:42:49.845Z,974.39
2016-12-27T07:43:40.588Z,974.45
2016-12-27T07:44:39.845Z,974.45
2016-12-27T07:45:55.103Z,974.47
2016-12-27T07:46:45.423Z,974.44
2016-12-27T07:47:39.694Z,974.45
2016-12-27T07:48:40.845Z,974.49
2016-12-27T07:49:35.592Z,974.55
2016-12-27T07:50:32.549Z,974.58
2016-12-27T07:51:37.754Z,974.56
2016-12-27T07:52:40.946Z,974.54
2016-12-27T07:53:39.330Z,974.58
2016-12-27T07:54:45.550Z,974.62
2016-12-27T07:55:51.327Z,974.65
2016-12-27T07:56:45.323Z,974.65
2016-12-27T07:57:44.232Z,974.67
2016-12-27T07:58:42.754Z,974.67
2016-12-27T07:59:55.573Z,974.69
2016-12-27T08:00:38.845Z,974.68
2016-12-27T08:01:44.542Z,974.70
2016-12-27T08:02:34.159Z,974.69
2016-12-27T08:03:21.926Z,974.73
2016-12-27T08:04:46.288Z,974.69
2016-12-27T08:05:39.859Z,974.72
2016-12-27T08:06:43.202Z,974.76
2016-12-27T08:07:40.288Z,974.74
2016-12-27T08:08:39.284Z,974.79
2016-12-27T08:09:36.596Z,974.76
2016-12-27T08:10:44.670Z,974.75
2016-12-27T08:11:50.389Z,974.78
2016-12-27T08:12:47.147Z,974.72
2016-12-27T08:13:42.046Z,974.72
2016-12-27T08:14:40.489Z,974.72
2016-12-27T08:15:39.820Z,974.70
2016-12-27T08:16:54.968Z,974.68
2016-12-27T08:17:49.786Z,974.67
2016-12-27T08:18:44.544Z,974.66
2016-12-27T08:19:43.364Z,974.66
2016-12-27T08:20:55.338Z,974.70
2016-12-27T08:21:38.019Z,974.71
2016-12-27T08:22:38.928Z,974.75
2016-12-27T08:23:41.359Z,974.73
2016-12-27T08:24:46.192Z,974.68
2016-12-27T08:25:51.622Z,974.73
2016-12-27T08:26:41.046Z,974.72
2016-12-27T08:27:40.384Z,974.71
2016-12-27T08:28:40.368Z,974.71
2016-12-27T08:29:39.693Z,974.72
2016-12-27T08:30:45.596Z,974.71
2016-12-27T08:31:38.609Z,974.69
2016-12-27T08:32:43.811Z,974.67
2016-12-27T08:33:45.058Z,974.63
2016-12-27T08:34:48.605Z,974.61
2016-12-27T08:35:34.683Z,974.59
2016-12-27T08:36:50.471Z,974.65
2016-12-27T08:37:34.336Z,974.70
2016-12-27T08:38:45.525Z,974.66
2016-12-27T08:39:41.303Z,974.67
2016-12-27T08:40:41.119Z,974.72
2016-12-27T08:41:38.089Z,974.72
2016-12-27T08:42:39.897Z,974.74
2016-12-27T08:43:34.211Z,974.74
2016-12-27T08:44:43.856Z,974.77
2016-12-27T08:45:51.401Z,974.73
2016-12-27T08:46:46.953Z,974.75
2016-12-27T08:47:45.376Z,974.78
2016-12-27T08:48:36.477Z,974.75
2016-12-27T08:49:45.382Z,974.81
2016-12-27T08:50:47.792Z,974.84
2016-12-27T08:51:54.374Z,974.82
2016-12-27T08:52:31.868Z,974.82
2016-12-27T08:53:40.582Z,974.87
2016-12-27T08:54:43.475Z,974.80
2016-12-27T08:55:45.304Z,974.87
2016-12-27T08:56:40.363Z,974.96
2016-12-27T08:57:52.280Z,974.89
2016-12-27T08:58:48.813Z,974.94
2016-12-27T08:59:38.590Z,974.92
2016-12-27T09:00:45.489Z,974.93
2016-12-27T09:01:47.658Z,974.94
2016-12-27T09:02:39.973Z,974.91
2016-12-27T09:03:46.547Z,974.94
2016-12-27T09:04:37.408Z,974.88
2016-12-27T09:05:45.306Z,974.89
2016-12-27T09:06:47.509Z,974.97
2016-12-27T09:07:33.957Z,974.98
2016-12-27T09:08:43.281Z,975.02
2016-12-27T09:09:46.774Z,975.00
2016-12-27T09:10:45.817Z,975.04
2016-12-27T09:11:46.461Z,974.99
2016-12-27T09:12:40.885Z,975.05
2016-12-27T09:13:45.777Z,974.96
2016-12-27T09:14:41.539Z,975.02
2016-12-27T09:16:27.122Z,974.99
2016-12-27T09:16:44.412Z,974.98
2016-12-27T09:17:39.738Z,974.97
2016-12-27T09:18:43.722Z,974.89
2016-12-27T09:19:39.404Z,974.87
2016-12-27T09:20:48.020Z,974.77
2016-12-27T09:21:41.590Z,974.77
2016-12-27T09:22:53.146Z,974.80
2016-12-27T09:23:37.431Z,974.82
2016-12-27T09:24:42.414Z,974.72
2016-12-27T09:25:43.750Z,974.76
2016-12-27T09:26:40.187Z,974.66
2016-12-27T09:27:35.362Z,974.66
2016-12-27T09:28:38.218Z,974.63
2016-12-27T09:29:50.407Z,974.66
2016-12-27T09:30:39.823Z,974.64
2016-12-27T09:31:46.541Z,974.62
2016-12-27T09:32:37.646Z,974.68
2016-12-27T09:33:34.698Z,974.76
2016-12-27T09:34:39.469Z,974.62
2016-12-27T09:35:34.428Z,974.79
2016-12-27T09:36:54.457Z,974.78
2016-12-27T09:37:38.405Z,974.75
2016-12-27T09:38:46.226Z,974.72
2016-12-27T09:39:43.375Z,974.81
2016-12-27T09:40:38.730Z,974.72
2016-12-27T09:41:22.716Z,974.71
2016-12-27T09:42:34.487Z,974.76
2016-12-27T09:43:32.989Z,974.78
2016-12-27T09:44:30.814Z,974.80
2016-12-27T09:45:38.889Z,974.85
2016-12-27T09:46:39.695Z,974.79
2016-12-27T09:47:44.569Z,974.85
2016-12-27T09:48:51.028Z,974.91
2016-12-27T09:49:28.404Z,974.92
2016-12-27T09:50:46.739Z,974.90
2016-12-27T09:51:44.570Z,974.98
2016-12-27T09:52:32.945Z,974.97
2016-12-27T09:53:38.303Z,975.03
2016-12-27T09:54:39.512Z,975.06
2016-12-27T09:55:40.528Z,975.08
2016-12-27T09:56:52.905Z,975.01
2016-12-27T09:57:42.458Z,975.06
2016-12-27T09:58:39.667Z,975.05
2016-12-27T09:59:38.226Z,975.06
2016-12-27T10:00:38.873Z,975.03
2016-12-27T10:01:46.840Z,975.06
2016-12-27T10:02:43.581Z,975.04
2016-12-27T10:03:38.946Z,974.99
2016-12-27T10:04:39.228Z,975.05
2016-12-27T10:05:38.210Z,975.04
2016-12-27T10:06:34.351Z,975.08
2016-12-27T10:07:40.440Z,975.04
2016-12-27T10:08:39.639Z,975.06
2016-12-27T10:09:38.899Z,975.07
2016-12-27T10:10:33.918Z,975.13
2016-12-27T10:11:43.080Z,974.97
2016-12-27T10:12:34.307Z,974.97
2016-12-27T10:13:42.446Z,974.89
2016-12-27T10:14:40.455Z,974.85
2016-12-27T10:15:34.710Z,974.81
2016-12-27T10:16:34.582Z,974.78
2016-12-27T10:17:31.902Z,974.75
2016-12-27T10:18:41.534Z,974.79
2016-12-27T10:19:39.292Z,974.81
2016-12-27T10:20:39.220Z,974.77
2016-12-27T10:21:37.760Z,974.77
2016-12-27T10:22:39.552Z,974.73
2016-12-27T10:23:37.225Z,974.77
2016-12-27T10:24:33.272Z,974.82
2016-12-27T10:25:40.942Z,974.76
2016-12-27T10:26:36.570Z,974.76
2016-12-27T10:27:43.500Z,974.74
2016-12-27T10:28:39.438Z,974.73
2016-12-27T10:29:39.160Z,974.69
2016-12-27T10:30:40.485Z,974.71
2016-12-27T10:31:33.424Z,974.66
2016-12-27T10:32:38.443Z,974.66
2016-12-27T10:33:37.481Z,974.61
2016-12-27T10:34:37.990Z,974.60
2016-12-27T10:35:42.141Z,974.62
2016-12-27T10:36:44.549Z,974.60
2016-12-27T10:37:32.414Z,974.60
2016-12-27T10:38:40.927Z,974.60
2016-12-27T10:39:41.402Z,974.63
2016-12-27T10:40:46.093Z,974.65
2016-12-27T10:41:35.355Z,974.66
2016-12-27T10:42:44.713Z,974.62
2016-12-27T10:43:40.049Z,974.64
2016-12-27T10:44:50.110Z,974.66
2016-12-27T10:45:36.892Z,974.70
2016-12-27T10:46:47.075Z,974.68
2016-12-27T10:47:43.199Z,974.68
2016-12-27T10:48:30.237Z,974.75
2016-12-27T10:49:29.772Z,974.62
2016-12-27T10:50:32.865Z,974.57
2016-12-27T10:51:33.717Z,974.63
2016-12-27T10:52:46.381Z,974.63
2016-12-27T10:53:39.901Z,974.62
2016-12-27T10:54:46.798Z,974.64
2016-12-27T10:55:45.459Z,974.64
2016-12-27T10:56:32.255Z,974.77
2016-12-27T10:57:45.672Z,974.62
2016-12-27T10:58:52.993Z,974.66
2016-12-27T10:59:27.411Z,974.61
2016-12-27T11:00:45.784Z,974.61
2016-12-27T11:01:51.636Z,974.60
2016-12-27T11:02:37.140Z,974.58
2016-12-27T11:03:33.538Z,974.58
2016-12-27T11:04:51.085Z,974.60
2016-12-27T11:05:50.523Z,974.57
2016-12-27T11:06:51.813Z,974.58
2016-12-27T11:07:53.369Z,974.55
2016-12-27T11:08:40.423Z,974.63
2016-12-27T11:09:56.946Z,974.64
2016-12-27T11:10:41.157Z,974.61
2016-12-27T11:11:34.287Z,974.60
2016-12-27T11:12:34.707Z,974.54
2016-12-27T11:13:38.501Z,974.47
2016-12-27T11:14:38.500Z,974.55
2016-12-27T11:15:40.091Z,974.49
2016-12-27T11:16:36.055Z,974.47
2016-12-27T11:17:45.419Z,974.50
2016-12-27T11:18:45.421Z,974.44
2016-12-27T11:19:44.726Z,974.44
2016-12-27T11:20:41.537Z,974.48
2016-12-27T11:21:33.383Z,974.46
2016-12-27T11:22:41.355Z,974.51
2016-12-27T11:23:45.796Z,974.49
2016-12-27T11:24:39.035Z,974.54
2016-12-27T11:25:39.720Z,974.46
2016-12-27T11:26:47.666Z,974.52
2016-12-27T11:27:51.606Z,974.44
2016-12-27T11:28:41.009Z,974.49
2016-12-27T11:29:38.110Z,974.54
2016-12-27T11:30:45.373Z,974.51
2016-12-27T11:31:39.829Z,974.50
2016-12-27T11:32:39.004Z,974.53
2016-12-27T11:33:39.033Z,974.60
2016-12-27T11:34:38.892Z,974.60
2016-12-27T11:35:39.168Z,974.58
2016-12-27T11:36:39.682Z,974.60
2016-12-27T11:37:45.765Z,974.61
2016-12-27T11:38:50.049Z,974.58
2016-12-27T11:39:37.954Z,974.62
2016-12-27T11:40:47.468Z,974.63
2016-12-27T11:41:31.686Z,974.67
2016-12-27T11:42:44.950Z,974.69
2016-12-27T11:43:32.931Z,974.79
2016-12-27T11:44:55.502Z,974.83
2016-12-27T11:45:54.992Z,974.81
2016-12-27T11:46:37.844Z,974.89
2016-12-27T11:47:40.130Z,974.86
2016-12-27T11:48:44.740Z,974.90
2016-12-27T11:49:43.006Z,974.96
2016-12-27T11:50:45.221Z,974.89
2016-12-27T11:51:46.412Z,974.91
2016-12-27T11:52:38.972Z,974.87
2016-12-27T11:53:38.232Z,974.94
2016-12-27T11:54:39.770Z,974.97
2016-12-27T11:55:39.437Z,974.98
2016-12-27T11:56:46.959Z,974.93
2016-12-27T11:57:41.995Z,974.90
2016-12-27T11:58:46.558Z,974.86
2016-12-27T11:59:43.294Z,974.87
2016-12-27T12:00:43.618Z,974.83
2016-12-27T12:01:46.553Z,974.87
2016-12-27T12:02:40.245Z,974.80
2016-12-27T12:03:39.396Z,974.81
2016-12-27T12:04:40.744Z,974.84
2016-12-27T12:05:38.133Z,974.93
2016-12-27T12:06:52.319Z,974.89
2016-12-27T12:07:39.494Z,974.98
2016-12-27T12:08:45.383Z,975.00
2016-12-27T12:09:34.771Z,974.99
2016-12-27T12:10:42.613Z,975.11
2016-12-27T12:11:40.530Z,975.01
2016-12-27T12:12:53.305Z,975.00
2016-12-27T12:13:42.271Z,974.99
2016-12-27T12:14:37.034Z,974.96
2016-12-27T12:15:35.912Z,974.88
2016-12-27T12:16:46.836Z,974.92
2016-12-27T12:17:41.096Z,974.92
2016-12-27T12:18:40.260Z,974.90
2016-12-27T12:19:40.120Z,974.93
2016-12-27T12:20:39.675Z,974.97
2016-12-27T12:21:51.680Z,974.85
2016-12-27T12:22:44.513Z,974.88
2016-12-27T12:23:46.364Z,974.87
2016-12-27T12:24:41.105Z,974.84
2016-12-27T12:26:08.326Z,974.90
2016-12-27T12:26:39.414Z,974.86
2016-12-27T12:27:38.935Z,974.90
2016-12-27T12:28:35.728Z,974.95